Time;durP1;ratioP1;P1;durP2;ratioP2;P2;SDS_P1;SDS_P2;PMS_P1;PMS_P2;Temp;Humidity;BMP_temperature;BMP_pressure;BME280_temperature;BME280_humidity;BME280_pressure;Samples;Min_cycle;Max_cycle;Signal;HPM_P1;HPM_P2
2023/06/27 00:01:39;;;;;;;2.63;2.10;;;20.20;99.90;;;;;;5136904;27;20195;-50
2023/06/27 00:04:08;;;;;;;4.07;2.43;;;20.20;99.90;;;;;;5136448;27;20669;-53
2023/06/27 00:06:37;;;;;;;3.93;2.50;;;20.20;99.90;;;;;;5137036;27;20415;-50
2023/06/27 00:09:05;;;;;;;3.93;2.70;;;20.00;99.90;;;;;;5136839;27;20416;-50
2023/06/27 00:11:31;;;;;;;3.87;3.37;;;20.10;99.90;;;;;;5138010;27;20481;-49
2023/06/27 00:13:58;;;;;;;3.10;2.60;;;19.90;99.90;;;;;;5137151;27;20433;-53
2023/06/27 00:16:24;;;;;;;4.50;2.60;;;19.70;99.90;;;;;;5136851;27;20187;-52
2023/06/27 00:18:50;;;;;;;3.73;3.33;;;19.40;99.90;;;;;;5137162;27;20401;-54
2023/06/27 00:21:16;;;;;;;4.67;2.90;;;19.50;99.90;;;;;;5137448;27;20440;-50
2023/06/27 00:23:43;;;;;;;5.40;2.50;;;19.50;99.90;;;;;;5136441;27;20206;-52
2023/06/27 00:26:09;;;;;;;5.10;3.00;;;19.40;99.90;;;;;;5136537;27;20412;-49
2023/06/27 00:28:35;;;;;;;4.87;2.90;;;19.60;99.90;;;;;;5136547;27;20417;-52
2023/06/27 00:31:01;;;;;;;5.10;2.37;;;19.50;99.90;;;;;;5136667;27;20405;-51
2023/06/27 00:33:27;;;;;;;3.67;2.57;;;19.50;99.90;;;;;;5136315;27;20451;-52
2023/06/27 00:35:53;;;;;;;4.17;2.53;;;19.60;99.90;;;;;;5135094;27;20429;-52
2023/06/27 00:38:18;;;;;;;3.90;2.90;;;19.70;99.90;;;;;;5135430;27;20190;-50
2023/06/27 00:40:44;;;;;;;4.83;2.60;;;19.80;99.90;;;;;;5135276;27;20192;-51
2023/06/27 00:43:10;;;;;;;5.40;2.63;;;19.80;99.90;;;;;;5134790;27;20234;-49
2023/06/27 00:45:35;;;;;;;3.83;2.70;;;19.80;99.90;;;;;;5136064;27;20255;-53
2023/06/27 00:48:02;;;;;;;3.93;2.50;;;19.80;99.90;;;;;;5136828;27;20198;-50
2023/06/27 00:50:30;;;;;;;3.33;2.20;;;19.80;99.90;;;;;;5118506;27;20175;-52
2023/06/27 00:52:56;;;;;;;4.60;2.60;;;19.70;99.90;;;;;;5136460;27;20431;-51
2023/06/27 00:55:22;;;;;;;3.00;2.40;;;19.80;99.90;;;;;;5117606;27;20880;-52
2023/06/27 00:57:48;;;;;;;3.80;2.60;;;19.90;99.90;;;;;;5117858;27;20824;-55
2023/06/27 01:00:17;;;;;;;5.83;2.87;;;20.00;1.00;;;;;;5118763;27;20179;-53
2023/06/27 01:02:45;;;;;;;4.30;2.90;;;20.00;99.90;;;;;;5136981;27;20520;-50
2023/06/27 01:05:13;;;;;;;3.67;2.07;;;19.90;99.90;;;;;;5137272;27;20877;-51
2023/06/27 01:08:00;;;;;;;4.80;2.90;;;19.80;99.90;;;;;;5137074;27;20512;-53
2023/06/27 01:10:54;;;;;;;4.30;3.20;;;19.90;99.90;;;;;;5137236;27;20455;-49
2023/06/27 01:13:33;;;;;;;4.33;2.90;;;19.80;99.90;;;;;;5128495;27;20523;-51
2023/06/27 01:15:59;;;;;;;3.67;2.67;;;19.90;1.00;;;;;;5136044;27;20416;-55
2023/06/27 01:18:28;;;;;;;4.10;2.60;;;19.80;99.90;;;;;;5135575;27;20424;-50
2023/06/27 01:20:54;;;;;;;3.63;2.80;;;19.70;99.90;;;;;;5136754;27;20424;-53
2023/06/27 01:23:27;;;;;;;2.93;2.50;;;19.70;1.00;;;;;;5136846;27;20892;-51
2023/06/27 01:26:07;;;;;;;5.90;2.67;;;19.70;1.00;;;;;;5118282;28;20186;-52
2023/06/27 01:28:32;;;;;;;5.13;2.77;;;19.60;1.00;;;;;;5136987;28;20424;-61
2023/06/27 01:31:01;;;;;;;4.97;2.70;;;19.60;1.00;;;;;;5118457;28;20400;-49
2023/06/27 01:33:51;;;;;;;2.40;2.20;;;19.50;1.00;;;;;;5117983;28;20424;-51
2023/06/27 01:37:18;;;;;;;3.80;2.37;;;19.40;1.00;;;;;;5135830;28;20432;-49
2023/06/27 01:39:56;;;;;;;3.70;2.57;;;19.30;1.00;;;;;;5094207;28;20424;-49
2023/06/27 01:42:30;;;;;;;5.53;3.23;;;19.20;1.00;;;;;;5118558;28;20549;-54
2023/06/27 01:44:57;;;;;;;4.90;2.93;;;19.10;1.00;;;;;;5136486;28;20564;-55
2023/06/27 01:47:22;;;;;;;5.50;2.50;;;19.20;1.00;;;;;;5118391;28;20421;-51
2023/06/27 01:49:48;;;;;;;3.20;2.70;;;19.20;1.00;;;;;;5136250;28;20480;-51
2023/06/27 01:52:14;;;;;;;6.50;2.57;;;19.20;1.00;;;;;;5135957;28;20578;-53
2023/06/27 01:54:43;;;;;;;3.70;2.40;;;19.20;1.00;;;;;;5135908;28;20175;-54
2023/06/27 01:57:09;;;;;;;3.80;2.30;;;19.10;1.00;;;;;;5135955;28;20223;-51
2023/06/27 01:59:35;;;;;;;3.63;2.50;;;19.10;1.00;;;;;;5136462;28;20508;-53
2023/06/27 02:02:01;;;;;;;4.33;2.43;;;19.10;1.00;;;;;;5136640;28;20498;-52
2023/06/27 02:04:26;;;;;;;5.43;2.80;;;19.10;1.00;;;;;;5135280;28;20303;-51
2023/06/27 02:06:52;;;;;;;3.90;2.87;;;19.10;1.00;;;;;;5135880;28;20235;-50
2023/06/27 02:09:18;;;;;;;3.77;2.70;;;19.20;1.00;;;;;;5138979;27;20177;-50
2023/06/27 02:11:43;;;;;;;4.27;2.53;;;19.30;1.00;;;;;;5140515;27;20572;-50
2023/06/27 02:14:09;;;;;;;3.67;2.47;;;19.20;1.00;;;;;;5139712;27;20203;-54
2023/06/27 02:16:34;;;;;;;2.80;2.30;;;19.20;1.00;;;;;;5140160;27;20179;-49
2023/06/27 02:19:00;;;;;;;5.50;2.73;;;19.20;1.00;;;;;;5140268;27;20171;-51
2023/06/27 02:21:26;;;;;;;2.60;2.30;;;19.20;1.00;;;;;;5140274;27;20178;-50
2023/06/27 02:23:51;;;;;;;3.57;2.30;;;19.30;1.00;;;;;;5136706;27;20281;-51
2023/06/27 02:26:18;;;;;;;4.00;2.50;;;19.30;1.00;;;;;;5102546;28;20638;-52
2023/06/27 02:28:43;;;;;;;4.40;2.37;;;19.40;1.00;;;;;;5119941;28;20183;-52
2023/06/27 02:31:19;;;;;;;3.40;2.00;;;19.40;1.00;;;;;;5119993;27;20436;-50
2023/06/27 02:33:45;;;;;;;3.10;2.50;;;19.40;1.00;;;;;;5122032;27;20200;-54
2023/06/27 02:36:11;;;;;;;4.70;3.17;;;19.50;1.00;;;;;;5119311;27;20430;-49
2023/06/27 02:38:36;;;;;;;5.23;2.60;;;19.40;1.00;;;;;;5119458;28;20528;-53
2023/06/27 02:41:02;;;;;;;3.47;2.60;;;19.50;1.00;;;;;;5101106;28;20180;-52
2023/06/27 02:43:28;;;;;;;3.37;2.30;;;19.50;1.00;;;;;;5121644;27;20301;-53
2023/06/27 02:45:55;;;;;;;4.67;2.63;;;19.50;1.00;;;;;;5138772;27;20308;-54
2023/06/27 02:48:21;;;;;;;4.10;2.27;;;19.50;1.00;;;;;;5139000;27;20405;-51
2023/06/27 02:50:50;;;;;;;3.47;2.43;;;19.40;1.00;;;;;;5137378;27;20698;-51
2023/06/27 02:53:16;;;;;;;3.13;2.30;;;19.40;1.00;;;;;;5138931;27;20198;-52
2023/06/27 02:55:42;;;;;;;5.50;2.73;;;19.40;1.00;;;;;;5120046;27;20436;-52
2023/06/27 02:58:07;;;;;;;4.93;2.57;;;19.50;1.00;;;;;;5138138;27;20819;-54
2023/06/27 03:00:33;;;;;;;3.43;2.20;;;19.50;1.00;;;;;;5137473;27;20734;-52
2023/06/27 03:02:59;;;;;;;3.07;2.30;;;19.50;1.00;;;;;;5117656;28;20197;-54
2023/06/27 03:05:24;;;;;;;5.00;2.87;;;19.50;1.00;;;;;;5118053;28;20493;-50
2023/06/27 03:07:50;;;;;;;4.10;2.60;;;19.50;1.00;;;;;;5118025;28;20184;-51
2023/06/27 03:10:16;;;;;;;5.20;2.10;;;19.40;1.00;;;;;;5099251;28;20190;-54
2023/06/27 03:12:41;;;;;;;4.47;2.70;;;19.30;1.00;;;;;;5116568;28;20176;-53
2023/06/27 03:15:07;;;;;;;3.40;2.73;;;19.40;1.00;;;;;;5115068;28;20544;-53
2023/06/27 03:17:33;;;;;;;4.87;2.63;;;19.40;1.00;;;;;;5115395;28;20492;-51
2023/06/27 03:19:58;;;;;;;3.67;2.27;;;19.30;1.00;;;;;;5115411;28;20425;-53
2023/06/27 03:22:24;;;;;;;5.70;2.90;;;19.30;1.00;;;;;;5115242;28;20203;-52
2023/06/27 03:24:50;;;;;;;4.70;2.40;;;19.30;1.00;;;;;;5114922;28;20191;-50
2023/06/27 03:27:17;;;;;;;2.40;2.20;;;19.20;1.00;;;;;;5116567;27;20601;-51
2023/06/27 03:29:43;;;;;;;3.77;2.80;;;19.20;1.00;;;;;;5126333;27;20597;-52
2023/06/27 03:32:10;;;;;;;3.90;2.63;;;19.30;1.00;;;;;;5137613;27;20713;-53
2023/06/27 03:34:36;;;;;;;3.80;2.60;;;19.30;1.00;;;;;;5121123;27;20508;-50
2023/06/27 03:37:02;;;;;;;4.83;2.50;;;19.30;1.00;;;;;;5117135;28;20421;-50
2023/06/27 03:39:28;;;;;;;4.37;2.50;;;19.30;1.00;;;;;;5118186;28;20409;-51
2023/06/27 03:41:54;;;;;;;4.40;2.90;;;19.40;1.00;;;;;;5117036;28;20180;-51
2023/06/27 03:44:20;;;;;;;3.13;2.17;;;19.40;1.00;;;;;;5117846;28;20465;-53
2023/06/27 03:46:45;;;;;;;3.00;2.60;;;19.40;1.00;;;;;;5133730;27;20179;-49
2023/06/27 03:49:11;;;;;;;3.20;2.10;;;19.40;1.00;;;;;;5137978;27;20179;-53
2023/06/27 03:51:39;;;;;;;4.90;2.20;;;19.40;1.00;;;;;;5137777;27;20553;-51
2023/06/27 03:54:06;;;;;;;4.70;2.10;;;19.30;1.00;;;;;;5119279;27;20171;-53
2023/06/27 03:56:32;;;;;;;3.43;2.37;;;19.40;1.00;;;;;;5118977;27;20428;-53
2023/06/27 03:58:58;;;;;;;3.23;2.33;;;19.40;1.00;;;;;;5137136;27;20487;-53
2023/06/27 04:01:23;;;;;;;3.10;1.83;;;19.40;1.00;;;;;;5137742;27;20675;-52
2023/06/27 04:03:49;;;;;;;6.63;2.03;;;19.30;1.00;;;;;;5137320;27;20253;-54
2023/06/27 04:06:15;;;;;;;3.20;2.10;;;19.30;1.00;;;;;;5136541;27;20616;-53
2023/06/27 04:08:40;;;;;;;3.20;2.20;;;19.30;1.00;;;;;;5136093;27;20183;-52
2023/06/27 04:11:06;;;;;;;3.33;2.60;;;19.40;1.00;;;;;;5135755;27;20171;-55
2023/06/27 04:13:32;;;;;;;4.07;2.37;;;19.40;1.00;;;;;;5135304;27;20288;-55
2023/06/27 04:15:57;;;;;;;2.37;1.90;;;19.40;1.00;;;;;;5128975;27;20409;-53
2023/06/27 04:18:23;;;;;;;2.90;2.03;;;19.40;1.00;;;;;;5097966;28;20232;-55
2023/06/27 04:20:49;;;;;;;4.60;2.83;;;19.50;1.00;;;;;;5115944;28;20187;-55
2023/06/27 04:23:15;;;;;;;4.00;2.73;;;19.40;1.00;;;;;;5116998;28;20183;-54
2023/06/27 04:25:45;;;;;;;2.40;2.20;;;19.50;1.00;;;;;;5098646;28;20207;-53
2023/06/27 04:28:10;;;;;;;5.60;2.40;;;19.50;1.00;;;;;;5097093;28;20187;-54
2023/06/27 04:30:36;;;;;;;3.53;2.23;;;19.50;1.00;;;;;;5114225;28;20436;-51
2023/06/27 04:33:03;;;;;;;3.37;1.97;;;19.50;1.00;;;;;;5114246;28;20278;-54
2023/06/27 04:35:28;;;;;;;2.40;2.00;;;19.50;1.00;;;;;;5112241;28;20182;-52
2023/06/27 04:37:56;;;;;;;2.87;2.03;;;19.60;1.00;;;;;;5112567;28;20429;-53
2023/06/27 04:40:22;;;;;;;4.10;2.20;;;19.60;1.00;;;;;;5113910;28;20176;-51
2023/06/27 04:42:47;;;;;;;3.67;2.23;;;19.70;1.00;;;;;;5113500;28;20412;-50
2023/06/27 04:45:13;;;;;;;3.87;2.77;;;19.70;1.00;;;;;;5113493;28;20207;-55
2023/06/27 04:47:39;;;;;;;3.50;2.60;;;19.80;1.00;;;;;;5114505;28;20167;-55
2023/06/27 04:50:05;;;;;;;2.77;2.57;;;19.80;1.00;;;;;;5114398;28;20549;-53
2023/06/27 04:52:31;;;;;;;5.83;2.63;;;19.80;1.00;;;;;;5113829;28;20422;-52
2023/06/27 04:54:57;;;;;;;3.90;2.60;;;19.90;1.00;;;;;;5113058;28;20416;-52
2023/06/27 04:57:23;;;;;;;4.13;2.37;;;19.90;1.00;;;;;;5112697;28;20891;-49
2023/06/27 04:59:49;;;;;;;3.57;2.70;;;19.90;1.00;;;;;;5114454;28;20684;-53
2023/06/27 05:02:14;;;;;;;3.90;3.10;;;19.90;1.00;;;;;;5113456;28;20231;-52
2023/06/27 05:04:40;;;;;;;3.60;2.30;;;19.90;1.00;;;;;;5114475;28;20218;-51
2023/06/27 05:07:06;;;;;;;4.30;2.47;;;19.90;1.00;;;;;;5114791;28;20186;-51
2023/06/27 05:09:32;;;;;;;4.43;2.60;;;20.00;1.00;;;;;;5113374;28;20195;-54
2023/06/27 05:11:57;;;;;;;4.30;2.70;;;20.00;1.00;;;;;;5112451;28;20440;-53
2023/06/27 05:14:23;;;;;;;3.10;2.43;;;20.00;1.00;;;;;;5094150;28;20251;-52
2023/06/27 05:16:49;;;;;;;2.70;2.50;;;20.00;1.00;;;;;;5112908;28;20608;-53
2023/06/27 05:19:17;;;;;;;3.00;2.10;;;20.00;1.00;;;;;;5112521;28;20202;-52
2023/06/27 05:21:43;;;;;;;4.87;2.70;;;19.90;1.00;;;;;;5112009;28;20179;-52
2023/06/27 05:24:08;;;;;;;3.87;2.40;;;20.00;1.00;;;;;;5132722;27;20874;-51
2023/06/27 05:26:34;;;;;;;2.97;2.30;;;20.00;1.00;;;;;;5131303;27;20499;-50
2023/06/27 05:29:00;;;;;;;3.10;2.23;;;20.10;1.00;;;;;;5121995;28;20259;-51
2023/06/27 05:31:27;;;;;;;4.47;2.50;;;20.20;1.00;;;;;;5113191;28;20461;-50
2023/06/27 05:33:54;;;;;;;3.07;2.47;;;20.30;1.00;;;;;;5094020;28;20540;-50
2023/06/27 05:36:19;;;;;;;4.37;2.60;;;20.40;1.00;;;;;;5111432;28;20837;-51
2023/06/27 05:38:45;;;;;;;4.00;2.20;;;20.50;1.00;;;;;;5111589;28;20442;-51
2023/06/27 05:41:10;;;;;;;3.60;2.30;;;20.50;1.00;;;;;;5110477;28;20230;-52
2023/06/27 05:43:36;;;;;;;2.90;2.27;;;20.60;1.00;;;;;;5115820;28;20363;-52
2023/06/27 05:46:02;;;;;;;3.50;2.70;;;20.60;1.00;;;;;;5115826;28;20168;-51
2023/06/27 05:48:27;;;;;;;3.60;2.97;;;20.80;1.00;;;;;;5097591;28;20167;-51
2023/06/27 05:50:53;;;;;;;5.33;2.43;;;20.80;1.00;;;;;;5118085;27;20599;-52
2023/06/27 05:53:19;;;;;;;5.00;2.23;;;20.90;1.00;;;;;;5135161;27;20334;-52
2023/06/27 05:55:45;;;;;;;3.57;2.10;;;21.00;1.00;;;;;;5134310;27;20538;-50
2023/06/27 05:58:11;;;;;;;4.90;2.53;;;21.10;1.00;;;;;;5133532;27;20214;-50
2023/06/27 06:00:37;;;;;;;3.30;2.57;;;21.20;1.00;;;;;;5117127;27;20179;-50
2023/06/27 06:03:03;;;;;;;2.50;2.23;;;21.30;1.00;;;;;;5112845;28;20428;-50
2023/06/27 06:05:31;;;;;;;2.50;2.30;;;21.30;1.00;;;;;;5113256;28;20831;-52
2023/06/27 06:07:56;;;;;;;3.23;2.60;;;21.40;1.00;;;;;;5113383;28;20183;-52
2023/06/27 06:10:23;;;;;;;5.13;2.60;;;21.50;1.00;;;;;;5096383;28;20444;-50
2023/06/27 06:12:49;;;;;;;3.47;2.20;;;21.60;1.00;;;;;;5115550;28;20164;-52
2023/06/27 06:15:15;;;;;;;4.13;2.43;;;21.70;1.00;;;;;;5115742;28;20798;-51
2023/06/27 06:17:40;;;;;;;4.07;2.47;;;21.80;1.00;;;;;;5116611;28;20707;-54
2023/06/27 06:20:10;;;;;;;7.20;2.73;;;21.90;1.00;;;;;;5117272;28;20198;-54
2023/06/27 06:22:36;;;;;;;3.00;2.00;;;22.00;1.00;;;;;;5105011;28;20184;-51
2023/06/27 06:25:03;;;;;;;3.20;2.50;;;22.20;1.00;;;;;;5136231;27;20448;-52
2023/06/27 06:27:28;;;;;;;2.90;2.00;;;22.40;1.00;;;;;;5136781;27;20409;-55
2023/06/27 06:29:54;;;;;;;3.60;2.33;;;22.50;1.00;;;;;;5133067;27;20426;-53
2023/06/27 06:32:28;;;;;;;4.73;2.20;;;22.70;1.00;;;;;;5133502;27;20202;-51
2023/06/27 06:34:54;;;;;;;3.30;2.60;;;22.90;1.00;;;;;;5115114;27;20186;-50
2023/06/27 06:37:20;;;;;;;3.60;2.07;;;23.00;1.00;;;;;;5135223;27;20431;-51
2023/06/27 06:39:47;;;;;;;6.67;2.50;;;23.20;1.00;;;;;;5117525;27;20235;-51
2023/06/27 06:42:13;;;;;;;2.90;2.10;;;23.30;1.00;;;;;;5098041;28;20633;-51
2023/06/27 06:44:39;;;;;;;3.63;2.13;;;23.40;1.00;;;;;;5116027;28;20923;-55
2023/06/27 06:47:05;;;;;;;3.97;2.27;;;23.50;1.00;;;;;;5114460;27;21175;-51
2023/06/27 06:49:34;;;;;;;4.77;2.03;;;23.60;1.00;;;;;;5119232;27;20421;-56
2023/06/27 06:52:01;;;;;;;2.50;2.27;;;23.60;1.00;;;;;;5097531;28;20401;-51
2023/06/27 06:54:28;;;;;;;3.63;2.30;;;23.70;1.00;;;;;;5113470;28;20430;-52
2023/06/27 06:56:53;;;;;;;2.37;1.90;;;23.80;1.00;;;;;;5113811;28;20525;-50
2023/06/27 06:59:20;;;;;;;3.90;2.30;;;23.80;1.00;;;;;;5114002;28;20521;-52
2023/06/27 07:01:47;;;;;;;5.63;2.83;;;23.90;1.00;;;;;;5113678;28;20548;-55
2023/06/27 07:04:13;;;;;;;6.97;2.87;;;24.10;1.00;;;;;;5114154;28;20563;-51
2023/06/27 07:06:41;;;;;;;2.67;2.17;;;24.10;1.00;;;;;;5130340;27;20163;-52
2023/06/27 07:09:08;;;;;;;3.03;1.87;;;24.10;1.00;;;;;;5135857;27;20424;-56
2023/06/27 07:11:35;;;;;;;2.73;1.97;;;24.20;1.00;;;;;;5116598;27;20957;-50
2023/06/27 07:14:01;;;;;;;4.37;2.40;;;24.40;1.00;;;;;;5115994;28;20995;-51
2023/06/27 07:16:28;;;;;;;4.90;2.00;;;24.50;1.00;;;;;;5130592;27;20497;-53
2023/06/27 07:18:54;;;;;;;5.10;2.30;;;24.60;1.00;;;;;;5136647;27;20515;-53
2023/06/27 07:21:20;;;;;;;3.97;2.43;;;24.50;1.00;;;;;;5131347;27;20421;-52
2023/06/27 07:23:46;;;;;;;3.33;2.63;;;24.40;1.00;;;;;;5116122;28;21011;-53
2023/06/27 07:26:13;;;;;;;4.63;2.60;;;24.30;1.00;;;;;;5115591;28;20204;-53
2023/06/27 07:28:39;;;;;;;4.77;2.07;;;24.20;1.00;;;;;;5114881;28;20851;-51
2023/06/27 07:31:05;;;;;;;5.23;2.40;;;24.10;1.00;;;;;;5121600;27;20409;-51
2023/06/27 07:33:32;;;;;;;3.50;2.57;;;24.00;1.00;;;;;;5135427;27;20953;-54
2023/06/27 07:35:58;;;;;;;4.00;2.53;;;23.90;1.00;;;;;;5135837;27;20439;-54
2023/06/27 07:38:24;;;;;;;4.73;2.40;;;24.00;1.00;;;;;;5116495;27;20517;-50
2023/06/27 07:40:50;;;;;;;4.10;2.00;;;23.90;1.00;;;;;;5132104;27;20743;-53
2023/06/27 07:43:19;;;;;;;5.20;2.70;;;24.00;1.00;;;;;;5136881;27;20683;-52
2023/06/27 07:45:46;;;;;;;1.87;1.67;;;24.20;1.00;;;;;;5101446;27;20198;-56
2023/06/27 07:48:12;;;;;;;2.70;2.17;;;24.40;1.00;;;;;;5093711;28;20442;-55
2023/06/27 07:50:38;;;;;;;3.87;2.33;;;24.60;1.00;;;;;;5126647;27;20439;-51
2023/06/27 07:53:03;;;;;;;4.23;3.00;;;24.70;1.00;;;;;;5134485;27;20307;-53
2023/06/27 07:55:29;;;;;;;2.73;2.23;;;24.90;1.00;;;;;;5131709;27;20600;-55
2023/06/27 07:57:55;;;;;;;5.07;2.27;;;25.20;1.00;;;;;;5107357;27;20216;-55
2023/06/27 08:00:20;;;;;;;2.93;2.37;;;25.40;1.00;;;;;;5081489;28;20573;-54
2023/06/27 08:02:46;;;;;;;5.00;2.50;;;25.60;1.00;;;;;;5107852;28;20426;-51
2023/06/27 08:05:12;;;;;;;6.30;2.27;;;26.00;1.00;;;;;;5075722;28;20280;-54
2023/06/27 08:07:38;;;;;;;4.50;2.33;;;26.30;1.00;;;;;;5106282;28;20537;-54
2023/06/27 08:10:04;;;;;;;5.90;2.37;;;26.50;1.00;;;;;;5094469;28;20469;-53
2023/06/27 08:12:30;;;;;;;3.07;2.23;;;26.60;1.00;;;;;;5094893;28;20221;-55
2023/06/27 08:14:56;;;;;;;6.40;2.23;;;26.50;1.00;;;;;;5094618;28;20437;-54
2023/06/27 08:17:22;;;;;;;3.93;2.50;;;26.50;1.00;;;;;;5094072;28;20453;-53
2023/06/27 08:19:47;;;;;;;3.13;2.40;;;26.40;1.00;;;;;;5096138;28;20172;-53
2023/06/27 08:22:13;;;;;;;3.10;2.30;;;26.00;1.00;;;;;;5114992;28;20484;-53
2023/06/27 08:24:40;;;;;;;2.90;2.33;;;25.70;1.00;;;;;;5113597;28;20316;-50
2023/06/27 08:27:06;;;;;;;3.27;2.30;;;25.50;1.00;;;;;;5101866;28;20202;-53
2023/06/27 08:29:33;;;;;;;3.70;2.10;;;25.20;1.00;;;;;;5112048;28;20606;-54
2023/06/27 08:31:59;;;;;;;3.47;2.63;;;25.00;1.00;;;;;;5095449;28;20448;-53
2023/06/27 08:34:33;;;;;;;5.93;2.73;;;24.90;1.00;;;;;;5113120;28;20421;-50
2023/06/27 08:36:59;;;;;;;5.87;3.07;;;24.90;1.00;;;;;;5113847;28;20817;-52
2023/06/27 08:39:26;;;;;;;5.40;2.70;;;25.20;1.00;;;;;;5113862;28;20421;-55
2023/06/27 08:41:51;;;;;;;5.10;3.17;;;25.50;1.00;;;;;;5096696;28;20548;-54
2023/06/27 08:44:17;;;;;;;4.00;2.80;;;25.90;1.00;;;;;;5094711;28;20469;-51
2023/06/27 08:46:44;;;;;;;3.73;2.77;;;26.30;1.00;;;;;;5114643;28;20183;-53
2023/06/27 08:49:10;;;;;;;3.70;2.80;;;26.50;1.00;;;;;;5096400;28;20561;-55
2023/06/27 08:51:38;;;;;;;3.70;2.80;;;26.80;1.00;;;;;;5113445;28;20525;-52
2023/06/27 08:54:12;;;;;;;5.50;2.80;;;26.90;1.00;;;;;;5112477;28;20917;-52
2023/06/27 08:56:38;;;;;;;3.20;2.40;;;27.10;1.00;;;;;;5111349;28;21143;-53
2023/06/27 08:59:07;;;;;;;3.30;2.73;;;27.30;1.00;;;;;;5130700;27;20468;-54
2023/06/27 09:01:34;;;;;;;4.27;2.80;;;27.50;1.00;;;;;;5099378;27;20470;-53
2023/06/27 09:04:01;;;;;;;3.87;2.63;;;27.30;1.00;;;;;;5115273;27;20463;-52
2023/06/27 09:06:27;;;;;;;4.80;3.07;;;26.80;1.00;;;;;;5133433;27;20420;-54
2023/06/27 09:08:53;;;;;;;4.67;3.37;;;26.00;1.00;;;;;;5134027;27;20753;-50
2023/06/27 09:11:20;;;;;;;9.67;3.33;;;25.20;1.00;;;;;;5116700;27;20443;-51
2023/06/27 09:13:46;;;;;;;3.40;2.90;;;24.30;1.00;;;;;;5114905;27;20174;-55
2023/06/27 09:16:13;;;;;;;4.17;2.77;;;24.10;1.00;;;;;;5133109;27;20484;-52
2023/06/27 09:18:39;;;;;;;4.23;3.10;;;24.20;1.00;;;;;;5115845;27;20197;-49
2023/06/27 09:21:06;;;;;;;6.93;3.10;;;24.70;1.00;;;;;;5133054;27;20726;-53
2023/06/27 09:23:31;;;;;;;5.40;3.80;;;25.20;1.00;;;;;;5133822;27;20535;-54
2023/06/27 09:26:06;;;;;;;7.70;3.30;;;25.20;1.00;;;;;;5098674;27;20428;-53
2023/06/27 09:28:32;;;;;;;6.67;3.00;;;25.00;1.00;;;;;;5132810;28;20178;-50
2023/06/27 09:30:58;;;;;;;6.53;2.97;;;24.70;1.00;;;;;;5113984;28;20416;-55
2023/06/27 09:33:25;;;;;;;4.43;2.60;;;24.50;1.00;;;;;;5127831;28;20565;-53
2023/06/27 09:35:50;;;;;;;8.03;3.50;;;24.30;1.00;;;;;;5133258;28;20425;-52
2023/06/27 09:38:20;;;;;;;6.27;2.93;;;24.40;1.00;;;;;;5132976;28;20458;-51
2023/06/27 09:40:48;;;;;;;6.07;2.77;;;24.60;1.00;;;;;;5109170;28;20317;-52
2023/06/27 09:43:15;;;;;;;3.20;2.50;;;24.70;1.00;;;;;;5111686;28;20431;-54
2023/06/27 09:45:41;;;;;;;5.23;3.30;;;24.90;1.00;;;;;;5113377;28;20500;-55
2023/06/27 09:48:10;;;;;;;4.53;3.00;;;24.90;1.00;;;;;;5093795;28;20579;-52
2023/06/27 09:50:38;;;;;;;3.93;2.50;;;25.00;1.00;;;;;;5109249;28;20172;-55
2023/06/27 09:53:04;;;;;;;5.13;2.70;;;25.20;1.00;;;;;;5112422;28;20566;-52
2023/06/27 09:55:30;;;;;;;5.40;3.57;;;25.40;1.00;;;;;;5130024;28;20458;-52
2023/06/27 09:57:57;;;;;;;4.63;2.80;;;25.60;1.00;;;;;;5113504;28;20242;-54
2023/06/27 10:00:26;;;;;;;3.10;2.63;;;25.50;1.00;;;;;;5118753;28;20220;-55
2023/06/27 10:02:52;;;;;;;3.23;2.60;;;25.40;1.00;;;;;;5134346;28;20486;-53
2023/06/27 10:05:20;;;;;;;5.03;2.53;;;25.40;1.00;;;;;;5134639;28;20533;-53
2023/06/27 10:07:53;;;;;;;4.03;3.10;;;25.40;1.00;;;;;;5133584;28;20436;-51
2023/06/27 10:10:25;;;;;;;6.73;3.03;;;25.60;1.00;;;;;;5113788;28;20490;-50
2023/06/27 10:12:51;;;;;;;6.30;3.17;;;25.60;1.00;;;;;;5125578;28;20421;-55
2023/06/27 10:15:17;;;;;;;3.83;2.70;;;25.60;1.00;;;;;;5113218;28;20412;-50
2023/06/27 10:17:45;;;;;;;3.07;2.77;;;25.60;1.00;;;;;;5119644;28;20519;-54
2023/06/27 10:20:11;;;;;;;3.43;2.90;;;25.60;1.00;;;;;;5133665;28;20191;-54
2023/06/27 10:22:39;;;;;;;3.00;2.50;;;25.60;1.00;;;;;;5114311;28;20508;-54
2023/06/27 10:25:07;;;;;;;6.43;3.23;;;25.70;1.00;;;;;;5130985;28;20529;-54
2023/06/27 10:27:38;;;;;;;4.00;2.87;;;25.90;1.00;;;;;;5129375;28;20841;-40
2023/06/27 10:30:19;;;;;;;4.57;2.70;;;26.10;1.00;;;;;;5126182;27;20422;-44
2023/06/27 10:32:45;;;;;;;2.83;2.53;;;26.50;1.00;;;;;;5117075;28;20421;-44
2023/06/27 10:35:12;;;;;;;4.77;2.87;;;27.00;1.00;;;;;;5115150;27;20477;-42
2023/06/27 10:37:42;;;;;;;7.97;2.77;;;27.60;1.00;;;;;;5117426;27;20447;-42
2023/06/27 10:40:09;;;;;;;2.80;2.40;;;28.20;1.00;;;;;;5138246;27;20424;-43
2023/06/27 10:42:36;;;;;;;6.33;3.10;;;28.70;1.00;;;;;;5101671;27;20770;-43
2023/06/27 10:45:09;;;;;;;6.93;3.60;;;28.70;1.00;;;;;;5126117;27;20847;-40
2023/06/27 10:47:44;;;;;;;3.70;2.80;;;28.60;1.00;;;;;;5130949;27;20864;-41
2023/06/27 10:50:14;;;;;;;3.20;2.80;;;28.80;1.00;;;;;;5130478;27;20864;-41
2023/06/27 10:53:01;;;;;;;4.73;3.10;;;28.60;1.00;;;;;;5123986;27;20404;-42
2023/06/27 10:55:29;;;;;;;4.80;2.90;;;28.90;1.00;;;;;;5115056;28;20452;-44
2023/06/27 10:58:14;;;;;;;4.80;2.67;;;29.00;1.00;;;;;;5116583;28;20719;-42
2023/06/27 11:00:46;;;;;;;3.70;2.50;;;29.00;1.00;;;;;;5116989;28;20418;-42
2023/06/27 11:03:18;;;;;;;4.67;3.33;;;28.90;1.00;;;;;;5117033;28;20847;-41
2023/06/27 11:05:57;;;;;;;4.53;2.90;;;28.70;1.00;;;;;;5098019;28;20821;-43
2023/06/27 11:08:28;;;;;;;5.40;2.93;;;28.70;1.00;;;;;;5080569;28;20445;-42
2023/06/27 11:11:04;;;;;;;4.60;3.17;;;28.40;1.00;;;;;;5079178;28;20686;-41
2023/06/27 11:13:40;;;;;;;3.43;2.90;;;28.40;1.00;;;;;;5097846;28;20841;-45
2023/06/27 11:16:06;;;;;;;5.13;3.10;;;28.40;1.00;;;;;;5096345;28;20477;-43
2023/06/27 11:18:33;;;;;;;3.23;2.90;;;27.90;1.00;;;;;;5113445;28;20413;-43
2023/06/27 11:20:59;;;;;;;5.40;3.37;;;27.80;1.00;;;;;;5112038;28;20460;-43
2023/06/27 11:23:25;;;;;;;6.80;3.13;;;27.80;1.00;;;;;;5113517;28;20772;-43
2023/06/27 11:25:52;;;;;;;6.57;3.13;;;27.90;1.00;;;;;;5112840;28;20198;-42
2023/06/27 11:28:19;;;;;;;5.10;3.10;;;28.00;1.00;;;;;;5113679;28;20875;-43
2023/06/27 11:30:45;;;;;;;4.17;2.90;;;27.80;1.00;;;;;;5113251;28;20402;-43
2023/06/27 11:33:14;;;;;;;5.43;3.27;;;27.90;1.00;;;;;;5112430;28;20757;-42
2023/06/27 11:35:42;;;;;;;5.00;3.10;;;27.90;1.00;;;;;;5078908;28;20422;-41
2023/06/27 11:38:09;;;;;;;5.53;3.30;;;28.10;1.00;;;;;;5115072;28;20804;-41
2023/06/27 11:40:35;;;;;;;3.73;2.73;;;28.00;1.00;;;;;;5114733;28;20437;-41
2023/06/27 11:43:05;;;;;;;3.90;2.90;;;27.70;1.00;;;;;;5114308;28;20807;-42
2023/06/27 11:45:31;;;;;;;5.00;2.93;;;27.30;1.00;;;;;;5114744;28;20817;-42
2023/06/27 11:47:58;;;;;;;4.50;3.50;;;27.30;1.00;;;;;;5096976;28;20802;-42
2023/06/27 11:50:23;;;;;;;3.93;3.00;;;27.50;1.00;;;;;;5080373;28;20517;-42
2023/06/27 11:52:51;;;;;;;4.40;3.80;;;27.80;1.00;;;;;;5115433;28;20425;-43
2023/06/27 11:55:17;;;;;;;4.03;2.60;;;28.10;1.00;;;;;;5115349;28;20479;-42
2023/06/27 11:57:52;;;;;;;5.00;2.83;;;27.90;1.00;;;;;;5113786;28;20453;-41
2023/06/27 12:00:25;;;;;;;6.23;3.20;;;28.00;1.00;;;;;;5114587;28;20532;-44
2023/06/27 12:02:55;;;;;;;2.80;2.33;;;28.10;1.00;;;;;;5096686;28;20431;-41
2023/06/27 12:05:24;;;;;;;4.17;3.13;;;28.40;1.00;;;;;;5095851;28;20778;-42
2023/06/27 12:08:05;;;;;;;6.17;2.70;;;28.80;1.00;;;;;;5112334;28;20430;-42
2023/06/27 12:10:32;;;;;;;3.03;2.73;;;29.40;1.00;;;;;;5096257;28;20691;-43
2023/06/27 12:13:00;;;;;;;4.00;2.60;;;29.50;1.00;;;;;;5113065;28;20412;-42
2023/06/27 12:15:25;;;;;;;3.90;2.70;;;29.40;1.00;;;;;;5112667;28;20870;-41
2023/06/27 12:18:02;;;;;;;9.13;3.20;;;29.40;1.00;;;;;;5077552;28;20600;-40
2023/06/27 12:20:47;;;;;;;4.47;2.80;;;29.50;1.00;;;;;;5079068;28;20271;-43
2023/06/27 12:23:13;;;;;;;3.40;2.80;;;30.00;1.00;;;;;;5112521;28;20452;-42
2023/06/27 12:25:42;;;;;;;3.93;2.77;;;30.00;1.00;;;;;;5094543;28;20469;-42
2023/06/27 12:28:11;;;;;;;4.60;3.27;;;29.90;1.00;;;;;;5078967;28;20208;-42
2023/06/27 12:30:36;;;;;;;6.00;4.07;;;29.50;1.00;;;;;;5096182;28;20408;-42
2023/06/27 12:33:02;;;;;;;4.57;2.60;;;29.10;1.00;;;;;;5113253;28;20601;-42
2023/06/27 12:35:28;;;;;;;5.00;2.87;;;29.20;1.00;;;;;;5077806;28;20183;-42
2023/06/27 12:37:54;;;;;;;3.67;3.20;;;29.60;1.00;;;;;;5110986;28;20498;-43
2023/06/27 12:40:22;;;;;;;4.30;2.90;;;29.90;1.00;;;;;;5110605;28;20824;-43
2023/06/27 12:42:49;;;;;;;4.50;2.90;;;29.90;1.00;;;;;;5094296;28;20179;-41
2023/06/27 12:45:15;;;;;;;4.80;2.83;;;29.70;1.00;;;;;;5111896;28;20737;-41
2023/06/27 12:47:41;;;;;;;5.10;2.63;;;29.50;1.00;;;;;;5113805;28;20404;-44
2023/06/27 12:50:18;;;;;;;3.10;2.80;;;29.30;1.00;;;;;;5113428;28;20176;-43
2023/06/27 12:52:48;;;;;;;3.80;3.30;;;29.30;1.00;;;;;;5111870;28;20470;-42
2023/06/27 12:55:20;;;;;;;4.53;3.30;;;29.70;1.00;;;;;;5112345;28;20428;-43
2023/06/27 12:57:48;;;;;;;7.80;3.30;;;30.30;1.00;;;;;;5112233;28;20428;-43